sensor_id;sensor_type;location;lat;lon;timestamp;temperature;humidity
54946;DHT22;40846;44.788;20.486;2022-10-16T00:00:35;358.90;2329.60
54946;DHT22;40846;44.788;20.486;2022-10-16T00:03:02;358.90;2329.60
54946;DHT22;40846;44.788;20.486;2022-10-16T00:05:28;358.70;2329.60
54946;DHT22;40846;44.788;20.486;2022-10-16T00:07:54;358.90;2329.60
54946;DHT22;40846;44.788;20.486;2022-10-16T00:10:20;358.90;2329.60
54946;DHT22;40846;44.788;20.486;2022-10-16T00:12:45;358.90;2329.60
54946;DHT22;40846;44.788;20.486;2022-10-16T00:15:11;358.90;2329.60
54946;DHT22;40846;44.788;20.486;2022-10-16T00:17:37;358.90;2329.60
54946;DHT22;40846;44.788;20.486;2022-10-16T00:20:03;358.90;2329.60
54946;DHT22;40846;44.788;20.486;2022-10-16T00:22:29;358.80;2329.60
54946;DHT22;40846;44.788;20.486;2022-10-16T00:24:55;358.90;2329.60
54946;DHT22;40846;44.788;20.486;2022-10-16T00:27:21;358.90;2329.60
54946;DHT22;40846;44.788;20.486;2022-10-16T00:29:50;358.90;2329.60
54946;DHT22;40846;44.788;20.486;2022-10-16T00:32:17;358.90;2329.60
54946;DHT22;40846;44.788;20.486;2022-10-16T00:34:43;358.90;2329.60
54946;DHT22;40846;44.788;20.486;2022-10-16T00:37:09;358.80;2329.60
54946;DHT22;40846;44.788;20.486;2022-10-16T00:39:35;358.80;2329.60
54946;DHT22;40846;44.788;20.486;2022-10-16T00:42:01;358.80;2329.60
54946;DHT22;40846;44.788;20.486;2022-10-16T00:47:15;358.70;2329.60
54946;DHT22;40846;44.788;20.486;2022-10-16T00:49:43;358.70;2329.60
54946;DHT22;40846;44.788;20.486;2022-10-16T00:52:10;358.80;2329.60
54946;DHT22;40846;44.788;20.486;2022-10-16T00:54:36;358.70;2329.60
54946;DHT22;40846;44.788;20.486;2022-10-16T00:57:05;358.70;2329.60
54946;DHT22;40846;44.788;20.486;2022-10-16T00:59:34;358.70;2329.60
54946;DHT22;40846;44.788;20.486;2022-10-16T01:02:11;358.70;2329.60
54946;DHT22;40846;44.788;20.486;2022-10-16T01:04:45;358.70;2329.60
54946;DHT22;40846;44.788;20.486;2022-10-16T01:07:31;358.70;2329.60
54946;DHT22;40846;44.788;20.486;2022-10-16T01:12:47;358.70;2329.60
54946;DHT22;40846;44.788;20.486;2022-10-16T01:18:16;358.70;2329.60
54946;DHT22;40846;44.788;20.486;2022-10-16T01:21:07;358.60;2329.60
54946;DHT22;40846;44.788;20.486;2022-10-16T01:31:45;358.50;2329.60
54946;DHT22;40846;44.788;20.486;2022-10-16T01:34:33;358.50;2329.60
54946;DHT22;40846;44.788;20.486;2022-10-16T01:37:09;358.50;2329.60
54946;DHT22;40846;44.788;20.486;2022-10-16T01:39:38;358.50;2329.60
54946;DHT22;40846;44.788;20.486;2022-10-16T01:42:16;358.50;2329.60
54946;DHT22;40846;44.788;20.486;2022-10-16T01:44:52;358.50;2329.60
54946;DHT22;40846;44.788;20.486;2022-10-16T01:47:22;358.50;2329.60
54946;DHT22;40846;44.788;20.486;2022-10-16T01:49:49;358.50;2329.60
54946;DHT22;40846;44.788;20.486;2022-10-16T01:52:21;358.50;2329.60
54946;DHT22;40846;44.788;20.486;2022-10-16T01:54:50;358.70;2329.60
54946;DHT22;40846;44.788;20.486;2022-10-16T01:57:18;358.60;2329.60
54946;DHT22;40846;44.788;20.486;2022-10-16T01:59:48;358.60;2329.60
54946;DHT22;40846;44.788;20.486;2022-10-16T02:02:17;358.50;2329.60
54946;DHT22;40846;44.788;20.486;2022-10-16T02:04:50;358.60;2329.60
54946;DHT22;40846;44.788;20.486;2022-10-16T02:07:18;358.60;2329.60
54946;DHT22;40846;44.788;20.486;2022-10-16T02:09:43;358.60;2329.60
54946;DHT22;40846;44.788;20.486;2022-10-16T02:12:22;358.50;2329.60
54946;DHT22;40846;44.788;20.486;2022-10-16T02:14:49;358.50;2329.60
54946;DHT22;40846;44.788;20.486;2022-10-16T02:17:25;358.50;2329.60
54946;DHT22;40846;44.788;20.486;2022-10-16T02:20:06;358.50;2329.60
54946;DHT22;40846;44.788;20.486;2022-10-16T02:22:41;358.50;2329.60
54946;DHT22;40846;44.788;20.486;2022-10-16T02:25:22;358.50;2329.60
54946;DHT22;40846;44.788;20.486;2022-10-16T02:28:16;358.50;2329.60
54946;DHT22;40846;44.788;20.486;2022-10-16T02:33:10;358.50;2329.60
54946;DHT22;40846;44.788;20.486;2022-10-16T02:35:39;358.50;2329.60
54946;DHT22;40846;44.788;20.486;2022-10-16T02:38:06;358.50;2329.60
54946;DHT22;40846;44.788;20.486;2022-10-16T02:40:33;358.40;2329.60
54946;DHT22;40846;44.788;20.486;2022-10-16T02:42:59;358.40;2329.60
54946;DHT22;40846;44.788;20.486;2022-10-16T02:45:25;358.40;2329.60
54946;DHT22;40846;44.788;20.486;2022-10-16T02:47:50;358.40;2329.60
54946;DHT22;40846;44.788;20.486;2022-10-16T02:50:16;358.40;2329.60
54946;DHT22;40846;44.788;20.486;2022-10-16T02:52:42;358.40;2329.60
54946;DHT22;40846;44.788;20.486;2022-10-16T02:55:08;358.40;2329.60
54946;DHT22;40846;44.788;20.486;2022-10-16T02:57:34;333.70;2329.60
54946;DHT22;40846;44.788;20.486;2022-10-16T03:00:03;333.70;2329.60
54946;DHT22;40846;44.788;20.486;2022-10-16T03:02:29;333.70;2329.60
54946;DHT22;40846;44.788;20.486;2022-10-16T03:04:55;333.70;2329.60
54946;DHT22;40846;44.788;20.486;2022-10-16T03:07:21;333.60;2329.60
54946;DHT22;40846;44.788;20.486;2022-10-16T03:09:46;333.70;2329.60
54946;DHT22;40846;44.788;20.486;2022-10-16T03:12:13;333.70;2329.60
54946;DHT22;40846;44.788;20.486;2022-10-16T03:14:38;333.60;2329.60
54946;DHT22;40846;44.788;20.486;2022-10-16T03:17:05;333.60;2329.60
54946;DHT22;40846;44.788;20.486;2022-10-16T03:19:31;333.60;2329.60
54946;DHT22;40846;44.788;20.486;2022-10-16T03:21:57;333.70;2329.60
54946;DHT22;40846;44.788;20.486;2022-10-16T03:24:23;333.70;2329.60
54946;DHT22;40846;44.788;20.486;2022-10-16T03:26:48;333.70;2329.60
54946;DHT22;40846;44.788;20.486;2022-10-16T03:29:14;333.60;2329.60
54946;DHT22;40846;44.788;20.486;2022-10-16T03:31:40;333.60;2329.60
54946;DHT22;40846;44.788;20.486;2022-10-16T03:34:06;333.60;2329.60
54946;DHT22;40846;44.788;20.486;2022-10-16T03:36:31;333.50;2329.60
54946;DHT22;40846;44.788;20.486;2022-10-16T03:38:57;333.60;2329.60
54946;DHT22;40846;44.788;20.486;2022-10-16T03:41:23;333.60;2329.60
54946;DHT22;40846;44.788;20.486;2022-10-16T03:43:48;333.60;2329.60
54946;DHT22;40846;44.788;20.486;2022-10-16T03:46:14;333.60;2329.60
54946;DHT22;40846;44.788;20.486;2022-10-16T03:48:40;333.50;2329.60
54946;DHT22;40846;44.788;20.486;2022-10-16T03:51:06;333.50;2329.60
54946;DHT22;40846;44.788;20.486;2022-10-16T03:53:32;333.50;2329.60
54946;DHT22;40846;44.788;20.486;2022-10-16T03:55:57;333.40;2329.60
54946;DHT22;40846;44.788;20.486;2022-10-16T03:58:24;333.40;2329.60
54946;DHT22;40846;44.788;20.486;2022-10-16T04:00:49;333.40;2329.60
54946;DHT22;40846;44.788;20.486;2022-10-16T04:05:59;333.50;2329.60
54946;DHT22;40846;44.788;20.486;2022-10-16T04:08:24;333.40;2329.60
54946;DHT22;40846;44.788;20.486;2022-10-16T04:10:50;333.40;2329.60
54946;DHT22;40846;44.788;20.486;2022-10-16T04:13:16;333.40;2329.60
54946;DHT22;40846;44.788;20.486;2022-10-16T04:15:42;333.30;2329.60
54946;DHT22;40846;44.788;20.486;2022-10-16T04:18:08;333.30;2329.60
54946;DHT22;40846;44.788;20.486;2022-10-16T04:20:34;333.30;2329.60
54946;DHT22;40846;44.788;20.486;2022-10-16T04:22:59;333.30;2329.60
54946;DHT22;40846;44.788;20.486;2022-10-16T04:25:25;333.20;2329.60
54946;DHT22;40846;44.788;20.486;2022-10-16T04:27:53;333.10;2329.60
54946;DHT22;40846;44.788;20.486;2022-10-16T04:30:19;333.10;2329.60
54946;DHT22;40846;44.788;20.486;2022-10-16T04:32:49;333.10;2329.60
54946;DHT22;40846;44.788;20.486;2022-10-16T04:35:16;333.10;2329.60
54946;DHT22;40846;44.788;20.486;2022-10-16T04:37:42;333.10;2329.60
54946;DHT22;40846;44.788;20.486;2022-10-16T04:40:08;333.10;2329.60
54946;DHT22;40846;44.788;20.486;2022-10-16T04:42:33;333.10;2329.60
54946;DHT22;40846;44.788;20.486;2022-10-16T04:44:59;333.10;2329.60
54946;DHT22;40846;44.788;20.486;2022-10-16T04:47:25;333.20;2329.60
54946;DHT22;40846;44.788;20.486;2022-10-16T04:49:50;333.00;2329.60
54946;DHT22;40846;44.788;20.486;2022-10-16T04:52:16;333.00;2329.60
54946;DHT22;40846;44.788;20.486;2022-10-16T04:54:44;333.00;2329.60
54946;DHT22;40846;44.788;20.486;2022-10-16T04:57:11;333.20;2329.60
54946;DHT22;40846;44.788;20.486;2022-10-16T04:59:36;333.00;2329.60
54946;DHT22;40846;44.788;20.486;2022-10-16T05:02:02;333.00;2329.60
54946;DHT22;40846;44.788;20.486;2022-10-16T05:04:28;333.00;2329.60
54946;DHT22;40846;44.788;20.486;2022-10-16T05:06:54;333.00;2329.60
54946;DHT22;40846;44.788;20.486;2022-10-16T05:09:20;333.00;2329.60
54946;DHT22;40846;44.788;20.486;2022-10-16T05:11:45;333.10;2329.60
54946;DHT22;40846;44.788;20.486;2022-10-16T05:14:11;333.10;2329.60
54946;DHT22;40846;44.788;20.486;2022-10-16T05:16:37;333.10;2329.60
54946;DHT22;40846;44.788;20.486;2022-10-16T05:19:03;333.00;2329.60
54946;DHT22;40846;44.788;20.486;2022-10-16T05:21:28;333.00;2329.60
54946;DHT22;40846;44.788;20.486;2022-10-16T05:23:54;332.90;2329.60
54946;DHT22;40846;44.788;20.486;2022-10-16T05:26:20;332.90;2329.60
54946;DHT22;40846;44.788;20.486;2022-10-16T05:28:46;332.90;2329.60
54946;DHT22;40846;44.788;20.486;2022-10-16T05:31:12;332.90;2329.60
54946;DHT22;40846;44.788;20.486;2022-10-16T05:33:38;332.90;2329.60
54946;DHT22;40846;44.788;20.486;2022-10-16T05:36:06;332.90;2329.60
54946;DHT22;40846;44.788;20.486;2022-10-16T05:45:59;333.20;2329.60
54946;DHT22;40846;44.788;20.486;2022-10-16T05:48:25;333.00;2329.60
54946;DHT22;40846;44.788;20.486;2022-10-16T05:51:05;332.80;2329.60
54946;DHT22;40846;44.788;20.486;2022-10-16T05:53:36;332.90;2329.60
54946;DHT22;40846;44.788;20.486;2022-10-16T05:56:04;332.80;2329.60
54946;DHT22;40846;44.788;20.486;2022-10-16T05:58:33;332.90;2329.60
54946;DHT22;40846;44.788;20.486;2022-10-16T06:01:02;332.90;2329.60
54946;DHT22;40846;44.788;20.486;2022-10-16T06:03:28;332.90;2329.60
54946;DHT22;40846;44.788;20.486;2022-10-16T06:05:54;333.00;2329.60
54946;DHT22;40846;44.788;20.486;2022-10-16T06:08:21;333.00;2329.60
54946;DHT22;40846;44.788;20.486;2022-10-16T06:10:48;333.10;2329.60
54946;DHT22;40846;44.788;20.486;2022-10-16T06:13:14;333.10;2329.60
54946;DHT22;40846;44.788;20.486;2022-10-16T06:15:43;333.20;2329.60
54946;DHT22;40846;44.788;20.486;2022-10-16T06:18:09;333.20;2329.60
54946;DHT22;40846;44.788;20.486;2022-10-16T06:20:36;333.20;2329.60
54946;DHT22;40846;44.788;20.486;2022-10-16T06:23:02;333.30;2329.60
54946;DHT22;40846;44.788;20.486;2022-10-16T06:25:30;333.20;2329.60
54946;DHT22;40846;44.788;20.486;2022-10-16T06:27:56;333.30;2329.60
54946;DHT22;40846;44.788;20.486;2022-10-16T06:30:21;333.50;2329.60
54946;DHT22;40846;44.788;20.486;2022-10-16T06:32:47;333.50;2329.60
54946;DHT22;40846;44.788;20.486;2022-10-16T06:35:13;333.40;2329.60
54946;DHT22;40846;44.788;20.486;2022-10-16T06:37:39;333.50;2329.60
54946;DHT22;40846;44.788;20.486;2022-10-16T06:40:05;333.50;2329.60
54946;DHT22;40846;44.788;20.486;2022-10-16T06:42:31;333.60;2329.60
54946;DHT22;40846;44.788;20.486;2022-10-16T06:44:56;333.60;2329.60
54946;DHT22;40846;44.788;20.486;2022-10-16T06:47:22;333.70;2329.60
54946;DHT22;40846;44.788;20.486;2022-10-16T06:52:14;358.50;2329.60
54946;DHT22;40846;44.788;20.486;2022-10-16T06:54:40;358.50;2329.60
54946;DHT22;40846;44.788;20.486;2022-10-16T06:57:06;358.40;2329.60
54946;DHT22;40846;44.788;20.486;2022-10-16T06:59:32;358.60;2329.60
54946;DHT22;40846;44.788;20.486;2022-10-16T07:01:58;358.60;2329.60
54946;DHT22;40846;44.788;20.486;2022-10-16T07:11:43;359.30;2329.60
54946;DHT22;40846;44.788;20.486;2022-10-16T07:14:17;359.10;2329.60
54946;DHT22;40846;44.788;20.486;2022-10-16T07:16:43;359.10;2329.60
54946;DHT22;40846;44.788;20.486;2022-10-16T07:19:08;359.20;2329.60
54946;DHT22;40846;44.788;20.486;2022-10-16T07:21:37;359.10;2329.60
54946;DHT22;40846;44.788;20.486;2022-10-16T07:26:32;384.20;2329.60
54946;DHT22;40846;44.788;20.486;2022-10-16T07:28:58;384.20;2329.60
54946;DHT22;40846;44.788;20.486;2022-10-16T07:31:24;384.40;2329.60
54946;DHT22;40846;44.788;20.486;2022-10-16T07:33:50;384.60;2329.60
54946;DHT22;40846;44.788;20.486;2022-10-16T07:36:18;384.80;2329.60
54946;DHT22;40846;44.788;20.486;2022-10-16T07:38:44;409.60;2355.20
54946;DHT22;40846;44.788;20.486;2022-10-16T07:41:12;409.80;2355.20
54946;DHT22;40846;44.788;20.486;2022-10-16T07:43:40;410.20;2355.20
54946;DHT22;40846;44.788;20.486;2022-10-16T07:46:05;410.30;2355.20
54946;DHT22;40846;44.788;20.486;2022-10-16T07:50:59;435.90;2355.20
54946;DHT22;40846;44.788;20.486;2022-10-16T08:30:17;563.80;2048.00
54946;DHT22;40846;44.788;20.486;2022-10-16T08:32:43;563.80;2022.40
54946;DHT22;40846;44.788;20.486;2022-10-16T08:35:10;563.80;1945.60
54946;DHT22;40846;44.788;20.486;2022-10-16T08:37:36;589.10;1868.80
54946;DHT22;40846;44.788;20.486;2022-10-16T08:40:05;588.90;2048.00
54946;DHT22;40846;44.788;20.486;2022-10-16T09:03:33;640.60;1536.00
54946;DHT22;40846;44.788;20.486;2022-10-16T09:16:14;666.00;1536.00
54946;DHT22;40846;44.788;20.486;2022-10-16T09:24:19;665.90;1484.80
54946;DHT22;40846;44.788;20.486;2022-10-16T09:26:46;665.80;1484.80
54946;DHT22;40846;44.788;20.486;2022-10-16T09:29:14;665.70;1510.40
54946;DHT22;40846;44.788;20.486;2022-10-16T09:36:56;665.80;1484.80
54946;DHT22;40846;44.788;20.486;2022-10-16T09:39:23;665.70;1510.40
54946;DHT22;40846;44.788;20.486;2022-10-16T09:41:48;665.80;1484.80
54946;DHT22;40846;44.788;20.486;2022-10-16T09:44:26;665.80;1510.40
54946;DHT22;40846;44.788;20.486;2022-10-16T09:47:12;640.70;1484.80
54946;DHT22;40846;44.788;20.486;2022-10-16T09:49:54;640.40;1561.60
54946;DHT22;40846;44.788;20.486;2022-10-16T09:52:21;615.20;1561.60
54946;DHT22;40846;44.788;20.486;2022-10-16T09:57:24;614.40;1715.20
54946;DHT22;40846;44.788;20.486;2022-10-16T09:59:54;589.30;1715.20
54946;DHT22;40846;44.788;20.486;2022-10-16T10:02:30;589.00;1715.20
54946;DHT22;40846;44.788;20.486;2022-10-16T10:04:56;588.80;1792.00
54946;DHT22;40846;44.788;20.486;2022-10-16T10:07:42;563.80;1792.00
54946;DHT22;40846;44.788;20.486;2022-10-16T10:10:29;563.70;1843.20
54946;DHT22;40846;44.788;20.486;2022-10-16T10:12:55;563.60;1894.40
54946;DHT22;40846;44.788;20.486;2022-10-16T10:15:22;563.20;1920.00
54946;DHT22;40846;44.788;20.486;2022-10-16T10:17:53;538.40;1945.60
54946;DHT22;40846;44.788;20.486;2022-10-16T10:22:50;538.20;2022.40
54946;DHT22;40846;44.788;20.486;2022-10-16T10:25:44;538.00;2048.00
54946;DHT22;40846;44.788;20.486;2022-10-16T10:48:51;512.90;2201.60
54946;DHT22;40846;44.788;20.486;2022-10-16T10:54:28;512.70;2227.20
54946;DHT22;40846;44.788;20.486;2022-10-16T10:59:58;512.80;2252.80
54946;DHT22;40846;44.788;20.486;2022-10-16T11:15:43;537.70;2252.80
54946;DHT22;40846;44.788;20.486;2022-10-16T11:18:32;512.90;2252.80
54946;DHT22;40846;44.788;20.486;2022-10-16T12:35:32;563.40;2176.00
54946;DHT22;40846;44.788;20.486;2022-10-16T12:38:07;563.30;2176.00
54946;DHT22;40846;44.788;20.486;2022-10-16T12:40:36;563.30;2176.00
54946;DHT22;40846;44.788;20.486;2022-10-16T12:51:53;563.50;2099.20
54946;DHT22;40846;44.788;20.486;2022-10-16T12:54:31;563.50;2099.20
54946;DHT22;40846;44.788;20.486;2022-10-16T13:05:01;563.50;2099.20
54946;DHT22;40846;44.788;20.486;2022-10-16T13:07:53;563.40;2099.20
54946;DHT22;40846;44.788;20.486;2022-10-16T13:10:37;563.40;2099.20
54946;DHT22;40846;44.788;20.486;2022-10-16T13:13:36;563.30;2099.20
54946;DHT22;40846;44.788;20.486;2022-10-16T13:26:45;538.50;2124.80
54946;DHT22;40846;44.788;20.486;2022-10-16T13:29:13;538.50;2124.80
54946;DHT22;40846;44.788;20.486;2022-10-16T13:31:40;538.50;2150.40
54946;DHT22;40846;44.788;20.486;2022-10-16T13:34:06;563.20;2150.40
54946;DHT22;40846;44.788;20.486;2022-10-16T13:36:46;538.50;2124.80
54946;DHT22;40846;44.788;20.486;2022-10-16T13:39:25;538.50;2124.80
54946;DHT22;40846;44.788;20.486;2022-10-16T13:44:42;538.20;2099.20
54946;DHT22;40846;44.788;20.486;2022-10-16T13:47:19;538.10;2124.80
54946;DHT22;40846;44.788;20.486;2022-10-16T13:49:45;538.10;2150.40
54946;DHT22;40846;44.788;20.486;2022-10-16T13:52:21;537.90;2150.40
54946;DHT22;40846;44.788;20.486;2022-10-16T13:54:47;537.90;2150.40
54946;DHT22;40846;44.788;20.486;2022-10-16T13:57:17;538.00;2150.40
54946;DHT22;40846;44.788;20.486;2022-10-16T13:59:43;537.90;2124.80
54946;DHT22;40846;44.788;20.486;2022-10-16T14:02:31;537.80;2124.80
54946;DHT22;40846;44.788;20.486;2022-10-16T14:05:01;537.80;2150.40
54946;DHT22;40846;44.788;20.486;2022-10-16T14:07:32;537.80;2150.40
54946;DHT22;40846;44.788;20.486;2022-10-16T14:10:07;537.80;2150.40
54946;DHT22;40846;44.788;20.486;2022-10-16T14:12:43;537.90;2150.40
54946;DHT22;40846;44.788;20.486;2022-10-16T14:15:19;537.90;2124.80
54946;DHT22;40846;44.788;20.486;2022-10-16T14:17:46;537.80;2124.80
54946;DHT22;40846;44.788;20.486;2022-10-16T14:20:15;537.80;2150.40
54946;DHT22;40846;44.788;20.486;2022-10-16T14:22:43;537.80;2150.40
54946;DHT22;40846;44.788;20.486;2022-10-16T14:27:45;537.80;2150.40
54946;DHT22;40846;44.788;20.486;2022-10-16T14:32:41;537.70;2124.80
54946;DHT22;40846;44.788;20.486;2022-10-16T14:35:26;537.80;2124.80
54946;DHT22;40846;44.788;20.486;2022-10-16T14:37:56;537.70;2124.80
54946;DHT22;40846;44.788;20.486;2022-10-16T14:40:34;537.90;2099.20
54946;DHT22;40846;44.788;20.486;2022-10-16T14:43:01;537.70;2124.80
54946;DHT22;40846;44.788;20.486;2022-10-16T14:45:30;537.60;2124.80
54946;DHT22;40846;44.788;20.486;2022-10-16T14:48:02;512.90;2124.80
54946;DHT22;40846;44.788;20.486;2022-10-16T14:50:29;512.90;2124.80
54946;DHT22;40846;44.788;20.486;2022-10-16T14:52:55;512.90;2124.80
54946;DHT22;40846;44.788;20.486;2022-10-16T14:55:21;512.90;2124.80
54946;DHT22;40846;44.788;20.486;2022-10-16T14:57:47;512.90;2150.40
54946;DHT22;40846;44.788;20.486;2022-10-16T15:00:19;537.60;2150.40
54946;DHT22;40846;44.788;20.486;2022-10-16T15:02:47;537.60;2150.40
54946;DHT22;40846;44.788;20.486;2022-10-16T15:05:27;537.60;2150.40
54946;DHT22;40846;44.788;20.486;2022-10-16T15:07:54;512.90;2124.80
54946;DHT22;40846;44.788;20.486;2022-10-16T15:10:25;512.90;2124.80
54946;DHT22;40846;44.788;20.486;2022-10-16T15:12:51;512.90;2124.80
54946;DHT22;40846;44.788;20.486;2022-10-16T15:18:22;512.80;2124.80
54946;DHT22;40846;44.788;20.486;2022-10-16T15:20:51;512.70;2124.80
54946;DHT22;40846;44.788;20.486;2022-10-16T15:23:19;512.80;2150.40
54946;DHT22;40846;44.788;20.486;2022-10-16T15:25:51;512.70;2150.40
54946;DHT22;40846;44.788;20.486;2022-10-16T15:28:18;512.70;2150.40
54946;DHT22;40846;44.788;20.486;2022-10-16T15:43:06;512.80;2150.40
54946;DHT22;40846;44.788;20.486;2022-10-16T15:45:31;512.70;2150.40
54946;DHT22;40846;44.788;20.486;2022-10-16T15:52:50;512.70;2150.40
54946;DHT22;40846;44.788;20.486;2022-10-16T15:55:16;512.50;2176.00
54946;DHT22;40846;44.788;20.486;2022-10-16T15:57:44;512.20;2201.60
54946;DHT22;40846;44.788;20.486;2022-10-16T17:18:48;461.20;2380.80
54946;DHT22;40846;44.788;20.486;2022-10-16T17:21:14;460.80;2380.80
54946;DHT22;40846;44.788;20.486;2022-10-16T17:23:40;460.80;2380.80
54946;DHT22;40846;44.788;20.486;2022-10-16T18:32:29;435.60;2355.20
54946;DHT22;40846;44.788;20.486;2022-10-16T18:34:55;435.20;2355.20
54946;DHT22;40846;44.788;20.486;2022-10-16T18:37:21;410.50;2355.20
54946;DHT22;40846;44.788;20.486;2022-10-16T18:39:47;410.40;2355.20
54946;DHT22;40846;44.788;20.486;2022-10-16T18:42:16;410.40;2355.20
54946;DHT22;40846;44.788;20.486;2022-10-16T18:44:42;410.40;2355.20
54946;DHT22;40846;44.788;20.486;2022-10-16T18:47:08;410.40;2355.20
54946;DHT22;40846;44.788;20.486;2022-10-16T18:49:34;410.40;2355.20
54946;DHT22;40846;44.788;20.486;2022-10-16T18:54:29;410.30;2355.20
54946;DHT22;40846;44.788;20.486;2022-10-16T18:56:55;410.30;2355.20
54946;DHT22;40846;44.788;20.486;2022-10-16T18:59:21;410.30;2355.20
54946;DHT22;40846;44.788;20.486;2022-10-16T19:01:50;410.30;2355.20
54946;DHT22;40846;44.788;20.486;2022-10-16T19:04:17;410.10;2355.20
54946;DHT22;40846;44.788;20.486;2022-10-16T19:06:45;410.10;2355.20
54946;DHT22;40846;44.788;20.486;2022-10-16T19:11:39;410.10;2355.20
54946;DHT22;40846;44.788;20.486;2022-10-16T19:14:05;410.00;2355.20
54946;DHT22;40846;44.788;20.486;2022-10-16T19:16:33;410.00;2355.20
54946;DHT22;40846;44.788;20.486;2022-10-16T19:19:04;410.00;2355.20
54946;DHT22;40846;44.788;20.486;2022-10-16T19:21:33;410.00;2355.20
54946;DHT22;40846;44.788;20.486;2022-10-16T19:24:01;410.10;2355.20
54946;DHT22;40846;44.788;20.486;2022-10-16T19:26:28;410.10;2355.20
54946;DHT22;40846;44.788;20.486;2022-10-16T19:28:56;410.10;2355.20
54946;DHT22;40846;44.788;20.486;2022-10-16T19:31:24;410.20;2355.20
54946;DHT22;40846;44.788;20.486;2022-10-16T19:33:56;410.20;2355.20
54946;DHT22;40846;44.788;20.486;2022-10-16T19:36:24;410.30;2355.20
54946;DHT22;40846;44.788;20.486;2022-10-16T19:38:56;410.30;2355.20
54946;DHT22;40846;44.788;20.486;2022-10-16T19:41:22;410.20;2355.20
54946;DHT22;40846;44.788;20.486;2022-10-16T19:43:48;410.20;2355.20
54946;DHT22;40846;44.788;20.486;2022-10-16T19:46:20;410.20;2355.20
54946;DHT22;40846;44.788;20.486;2022-10-16T19:48:48;410.20;2355.20
54946;DHT22;40846;44.788;20.486;2022-10-16T19:51:16;410.00;2355.20
54946;DHT22;40846;44.788;20.486;2022-10-16T19:53:42;410.00;2355.20
54946;DHT22;40846;44.788;20.486;2022-10-16T19:56:16;410.00;2355.20
54946;DHT22;40846;44.788;20.486;2022-10-16T19:58:43;410.00;2355.20
54946;DHT22;40846;44.788;20.486;2022-10-16T20:01:10;409.90;2355.20
54946;DHT22;40846;44.788;20.486;2022-10-16T20:03:35;409.90;2355.20
54946;DHT22;40846;44.788;20.486;2022-10-16T20:06:07;409.90;2355.20
54946;DHT22;40846;44.788;20.486;2022-10-16T20:08:37;409.90;2355.20
54946;DHT22;40846;44.788;20.486;2022-10-16T20:11:05;409.90;2355.20
54946;DHT22;40846;44.788;20.486;2022-10-16T20:13:34;409.80;2355.20
54946;DHT22;40846;44.788;20.486;2022-10-16T20:16:02;409.70;2355.20
54946;DHT22;40846;44.788;20.486;2022-10-16T20:18:28;409.70;2355.20
54946;DHT22;40846;44.788;20.486;2022-10-16T20:20:54;409.60;2355.20
54946;DHT22;40846;44.788;20.486;2022-10-16T20:23:25;409.60;2355.20
54946;DHT22;40846;44.788;20.486;2022-10-16T20:25:52;409.60;2355.20
54946;DHT22;40846;44.788;20.486;2022-10-16T20:28:21;409.60;2355.20
54946;DHT22;40846;44.788;20.486;2022-10-16T20:30:48;409.70;2355.20
54946;DHT22;40846;44.788;20.486;2022-10-16T20:33:15;409.70;2355.20
54946;DHT22;40846;44.788;20.486;2022-10-16T20:35:48;409.70;2355.20
54946;DHT22;40846;44.788;20.486;2022-10-16T20:40:44;409.70;2355.20
54946;DHT22;40846;44.788;20.486;2022-10-16T20:43:15;384.90;2329.60
54946;DHT22;40846;44.788;20.486;2022-10-16T20:45:41;384.80;2329.60
54946;DHT22;40846;44.788;20.486;2022-10-16T20:48:08;384.80;2329.60
54946;DHT22;40846;44.788;20.486;2022-10-16T20:50:35;384.70;2329.60
54946;DHT22;40846;44.788;20.486;2022-10-16T20:53:02;384.60;2329.60
54946;DHT22;40846;44.788;20.486;2022-10-16T20:55:28;384.60;2329.60
54946;DHT22;40846;44.788;20.486;2022-10-16T20:57:54;384.50;2329.60
54946;DHT22;40846;44.788;20.486;2022-10-16T21:00:21;384.50;2329.60
54946;DHT22;40846;44.788;20.486;2022-10-16T21:02:51;384.60;2329.60
54946;DHT22;40846;44.788;20.486;2022-10-16T21:05:18;384.40;2329.60
54946;DHT22;40846;44.788;20.486;2022-10-16T21:10:10;384.40;2329.60
54946;DHT22;40846;44.788;20.486;2022-10-16T21:34:34;384.40;2329.60
54946;DHT22;40846;44.788;20.486;2022-10-16T21:36:59;384.30;2329.60
54946;DHT22;40846;44.788;20.486;2022-10-16T21:39:25;384.00;2329.60
54946;DHT22;40846;44.788;20.486;2022-10-16T21:41:51;384.10;2329.60
54946;DHT22;40846;44.788;20.486;2022-10-16T21:44:17;359.20;2329.60
54946;DHT22;40846;44.788;20.486;2022-10-16T21:46:45;359.10;2329.60
54946;DHT22;40846;44.788;20.486;2022-10-16T21:49:16;359.10;2329.60
54946;DHT22;40846;44.788;20.486;2022-10-16T21:51:45;359.00;2329.60
54946;DHT22;40846;44.788;20.486;2022-10-16T21:54:14;359.00;2329.60
54946;DHT22;40846;44.788;20.486;2022-10-16T21:56:40;358.90;2329.60
54946;DHT22;40846;44.788;20.486;2022-10-16T21:59:06;358.90;2329.60
54946;DHT22;40846;44.788;20.486;2022-10-16T22:01:32;358.80;2329.60
54946;DHT22;40846;44.788;20.486;2022-10-16T22:03:58;358.80;2329.60
54946;DHT22;40846;44.788;20.486;2022-10-16T22:06:25;358.90;2329.60
54946;DHT22;40846;44.788;20.486;2022-10-16T22:08:53;358.80;2329.60
54946;DHT22;40846;44.788;20.486;2022-10-16T22:11:28;358.90;2329.60
54946;DHT22;40846;44.788;20.486;2022-10-16T22:13:57;358.80;2329.60
54946;DHT22;40846;44.788;20.486;2022-10-16T22:16:24;358.80;2329.60
54946;DHT22;40846;44.788;20.486;2022-10-16T22:18:51;358.70;2329.60
54946;DHT22;40846;44.788;20.486;2022-10-16T22:21:18;358.70;2329.60
54946;DHT22;40846;44.788;20.486;2022-10-16T22:23:43;358.70;2329.60
54946;DHT22;40846;44.788;20.486;2022-10-16T22:26:11;358.70;2329.60
54946;DHT22;40846;44.788;20.486;2022-10-16T22:28:38;358.70;2329.60
54946;DHT22;40846;44.788;20.486;2022-10-16T22:31:07;358.70;2329.60
54946;DHT22;40846;44.788;20.486;2022-10-16T22:33:33;358.70;2329.60
54946;DHT22;40846;44.788;20.486;2022-10-16T22:36:00;358.70;2329.60
54946;DHT22;40846;44.788;20.486;2022-10-16T22:38:28;358.60;2329.60